Time;durP1;ratioP1;P1;durP2;ratioP2;P2;SDS_P1;SDS_P2;PMS_P1;PMS_P2;Temp;Humidity;BMP_temperature;BMP_pressure;BME280_temperature;BME280_humidity;BME280_pressure;Samples;Min_cycle;Max_cycle;Signal;HPM_P1;HPM_P2
2021/07/13 00:01:36;;;;;;;12.88;9.93;;;;;;;20.58;81.85;99129.66;5053938;28;20052;-68
2021/07/13 00:04:06;;;;;;;13.70;10.25;;;;;;;20.60;81.84;99135.59;5054230;28;20119;-68
2021/07/13 00:06:50;;;;;;;14.98;10.57;;;;;;;20.63;81.86;99135.47;5053965;28;20083;-67
2021/07/13 00:09:20;;;;;;;15.15;9.45;;;;;;;20.68;81.58;99138.66;5053817;28;20053;-67
2021/07/13 00:11:50;;;;;;;13.27;9.52;;;;;;;20.73;81.72;99139.28;5054169;28;20075;-68
2021/07/13 00:14:20;;;;;;;12.85;9.85;;;;;;;20.75;81.45;99134.84;5054433;28;20478;-67
2021/07/13 00:16:49;;;;;;;14.23;10.15;;;;;;;20.77;81.22;99127.81;5053776;28;20061;-68
2021/07/13 00:19:19;;;;;;;14.48;9.55;;;;;;;20.77;81.37;99126.97;5054120;28;20052;-68
2021/07/13 00:21:49;;;;;;;;;;;;;;;20.79;81.26;99131.16;5054346;28;20132;-67
2021/07/13 00:24:19;;;;;;;12.13;9.55;;;;;;;20.80;81.55;99130.25;5053537;28;19927;-68
2021/07/13 00:26:48;;;;;;;14.55;10.00;;;;;;;20.79;81.22;99131.16;5053775;28;20534;-68
2021/07/13 00:29:17;;;;;;;13.68;9.70;;;;;;;20.76;81.26;99120.94;5053892;28;20056;-68
2021/07/13 00:31:46;;;;;;;17.83;10.95;;;;;;;20.80;81.28;99127.66;5054113;28;20033;-68
2021/07/13 00:34:16;;;;;;;16.13;10.13;;;;;;;20.80;81.17;99122.47;5035872;28;20122;-68
2021/07/13 00:36:44;;;;;;;13.77;10.82;;;;;;;20.82;81.33;99131.00;5053606;28;20068;-67
2021/07/13 00:39:15;;;;;;;13.93;10.40;;;;;;;20.80;81.42;99121.63;5054005;28;20075;-67
2021/07/13 00:41:44;;;;;;;16.98;10.85;;;;;;;20.83;81.58;99127.50;5053843;28;20487;-67
2021/07/13 00:44:14;;;;;;;13.48;10.43;;;;;;;20.86;81.42;99129.94;5036027;28;20048;-67
2021/07/13 00:46:47;;;;;;;15.05;10.10;;;;;;;20.90;81.54;99128.03;5053594;28;20503;-67
2021/07/13 00:49:18;;;;;;;13.80;9.75;;;;;;;20.91;81.45;99125.34;5053739;28;20124;-67
2021/07/13 00:51:47;;;;;;;16.55;10.18;;;;;;;20.93;81.45;99133.03;5053739;28;20036;-67
2021/07/13 00:54:19;;;;;;;16.17;10.98;;;;;;;20.92;81.38;99121.00;5053948;28;20442;-67
2021/07/13 00:56:51;;;;;;;13.18;10.15;;;;;;;20.96;81.21;99110.38;5053266;28;20470;-68
2021/07/13 00:59:21;;;;;;;14.27;10.30;;;;;;;20.94;81.29;99117.41;5053163;28;20053;-67
2021/07/13 01:01:50;;;;;;;13.38;10.38;;;;;;;20.86;81.36;99116.13;5053598;28;20061;-67
2021/07/13 01:04:20;;;;;;;14.05;10.27;;;;;;;20.87;81.56;99123.84;5053850;28;20048;-67
2021/07/13 01:06:55;;;;;;;11.93;9.63;;;;;;;20.90;81.57;99121.06;5053111;28;20076;-67
2021/07/13 01:09:39;;;;;;;14.52;9.88;;;;;;;20.96;81.72;99118.16;5035905;28;20045;-67
2021/07/13 01:12:17;;;;;;;12.50;9.55;;;;;;;20.96;81.28;99107.78;5053488;28;20128;-67
2021/07/13 01:14:51;;;;;;;13.20;9.65;;;;;;;20.90;81.26;99107.28;5053228;28;20037;-67
2021/07/13 01:17:29;;;;;;;16.35;10.93;;;;;;;20.90;81.20;99113.28;5053056;28;20056;-67
2021/07/13 01:20:12;;;;;;;13.13;9.82;;;;;;;20.91;81.02;99114.97;5053384;28;20037;-67
2021/07/13 01:22:44;;;;;;;13.45;10.57;;;;;;;20.87;81.25;99113.47;5053454;28;20037;-67
2021/07/13 01:25:27;;;;;;;12.57;10.50;;;;;;;20.80;81.09;99106.91;5053022;28;20049;-68
2021/07/13 01:28:07;;;;;;;15.23;10.38;;;;;;;20.78;81.18;99103.53;5053557;28;20429;-68
2021/07/13 01:30:39;;;;;;;;;;;;;;;20.76;80.95;99102.78;5053274;28;20053;-68
2021/07/13 01:33:12;;;;;;;17.48;11.27;;;;;;;20.71;81.14;99103.00;5052946;28;20011;-68
2021/07/13 01:35:46;;;;;;;16.88;11.65;;;;;;;20.75;81.46;99101.13;5035438;28;20053;-68
2021/07/13 01:38:17;;;;;;;14.32;11.50;;;;;;;20.74;81.22;99094.25;5056098;28;20053;-67
2021/07/13 01:40:49;;;;;;;20.20;12.23;;;;;;;20.67;81.08;99085.09;5057005;28;20048;-67
2021/07/13 01:43:23;;;;;;;19.33;12.07;;;;;;;20.67;81.58;99087.69;5056662;28;20445;-67
2021/07/13 01:45:52;;;;;;;18.27;11.25;;;;;;;20.67;81.23;99090.28;5056924;28;20116;-67
2021/07/13 01:48:22;;;;;;;16.90;11.95;;;;;;;20.63;81.38;99078.41;5056965;28;20063;-67
2021/07/13 01:50:55;;;;;;;13.93;10.63;;;;;;;20.61;81.35;99077.66;5056832;28;20041;-68
2021/07/13 01:53:27;;;;;;;14.70;10.57;;;;;;;20.61;81.34;99081.06;5056778;28;20049;-67
2021/07/13 01:55:58;;;;;;;15.05;10.57;;;;;;;20.59;81.35;99076.84;5038792;28;20544;-67
2021/07/13 01:58:32;;;;;;;13.68;10.80;;;;;;;20.59;81.37;99076.84;5056633;28;20045;-67
2021/07/13 02:01:06;;;;;;;13.88;9.52;;;;;;;20.48;81.25;99073.97;5038419;28;20041;-67
2021/07/13 02:03:36;;;;;;;20.27;9.88;;;;;;;20.46;81.45;99078.41;5056652;28;20041;-67
2021/07/13 02:06:06;;;;;;;14.10;10.27;;;;;;;20.39;81.63;99079.63;5056787;28;20376;-67
2021/07/13 02:08:37;;;;;;;14.75;10.25;;;;;;;20.43;81.85;99075.97;5056344;28;20037;-67
2021/07/13 02:11:08;;;;;;;13.90;9.98;;;;;;;20.47;81.80;99077.47;5038392;28;20064;-67
2021/07/13 02:13:38;;;;;;;14.15;10.23;;;;;;;20.46;81.74;99070.63;5056310;28;20049;-68
2021/07/13 02:16:08;;;;;;;15.95;10.60;;;;;;;20.49;81.94;99086.03;5056253;28;20079;-67
2021/07/13 02:18:37;;;;;;;;;;;;;;;20.45;81.90;99084.50;5056347;28;20049;-68
2021/07/13 02:21:09;;;;;;;15.68;9.63;;;;;;;20.43;81.83;99086.34;5055763;28;20377;-67
2021/07/13 02:23:38;;;;;;;14.00;10.90;;;;;;;20.43;81.71;99082.00;5056481;28;20052;-67
2021/07/13 02:26:09;;;;;;;13.27;10.70;;;;;;;20.43;82.03;99070.78;5055853;28;20124;-68
2021/07/13 02:28:45;;;;;;;14.13;10.23;;;;;;;20.46;81.82;99078.41;5055995;28;20123;-68
2021/07/13 02:31:19;;;;;;;14.32;10.32;;;;;;;20.47;81.81;99082.66;5055907;28;20053;-68
2021/07/13 02:33:53;;;;;;;13.48;10.60;;;;;;;20.46;81.81;99083.59;5056260;28;20052;-68
2021/07/13 02:36:29;;;;;;;14.82;10.55;;;;;;;20.47;81.77;99078.31;5055614;28;20053;-67
2021/07/13 02:38:59;;;;;;;15.23;11.18;;;;;;;20.48;81.68;99081.75;5055904;28;20041;-67
2021/07/13 02:41:29;;;;;;;15.27;10.32;;;;;;;20.45;81.86;99079.31;5055602;28;20044;-67
2021/07/13 02:44:00;;;;;;;16.60;10.85;;;;;;;20.44;81.72;99073.28;5056028;28;20483;-68
2021/07/13 02:46:40;;;;;;;13.73;10.50;;;;;;;20.47;81.92;99077.47;5055768;28;20041;-68
2021/07/13 02:49:11;;;;;;;14.38;11.13;;;;;;;20.49;81.90;99073.09;5055206;28;20041;-67
2021/07/13 02:51:41;;;;;;;13.93;9.63;;;;;;;20.49;81.87;99075.69;5055685;28;20033;-68
2021/07/13 02:54:11;;;;;;;15.05;9.85;;;;;;;20.52;81.95;99078.09;5055500;28;20068;-67
2021/07/13 02:56:43;;;;;;;16.10;10.60;;;;;;;20.52;81.87;99080.69;5055176;28;20142;-68
2021/07/13 02:59:14;;;;;;;13.55;10.23;;;;;;;20.51;81.94;99079.03;5055348;28;20376;-67
2021/07/13 03:01:45;;;;;;;12.45;9.75;;;;;;;20.54;81.92;99073.66;5055422;28;20040;-68
2021/07/13 03:04:16;;;;;;;15.38;10.20;;;;;;;20.52;81.69;99065.13;5055730;28;20041;-67
2021/07/13 03:06:45;;;;;;;;;;;;;;;20.53;81.67;99059.88;5055518;28;20079;-68
2021/07/13 03:09:15;;;;;;;14.45;10.13;;;;;;;20.54;81.73;99060.69;5055533;28;19920;-67
2021/07/13 03:11:45;;;;;;;15.73;11.63;;;;;;;20.55;81.74;99059.78;5037022;28;20094;-67
2021/07/13 03:14:19;;;;;;;15.02;11.05;;;;;;;20.56;81.75;99057.09;5054875;28;20056;-67
2021/07/13 03:16:50;;;;;;;13.93;9.82;;;;;;;20.55;81.71;99058.03;5054814;28;20057;-68
2021/07/13 03:19:19;;;;;;;14.02;10.85;;;;;;;20.55;81.60;99060.63;5054703;28;20114;-68
2021/07/13 03:21:53;;;;;;;13.32;10.38;;;;;;;20.55;81.87;99058.03;5054760;28;20086;-68
2021/07/13 03:24:26;;;;;;;17.40;11.35;;;;;;;20.52;81.98;99065.13;5054997;28;20057;-67
2021/07/13 03:26:56;;;;;;;15.70;10.27;;;;;;;20.53;81.80;99061.63;5055198;28;20041;-68
2021/07/13 03:29:27;;;;;;;13.30;10.00;;;;;;;20.58;81.83;99064.81;5054994;28;20041;-68
2021/07/13 03:31:58;;;;;;;17.35;11.48;;;;;;;20.62;81.97;99055.97;5054403;28;20394;-67
2021/07/13 03:34:28;;;;;;;16.63;11.48;;;;;;;20.64;81.73;99054.97;5054475;28;20049;-68
2021/07/13 03:36:58;;;;;;;17.05;10.40;;;;;;;20.66;81.77;99067.84;5055068;28;20048;-68
2021/07/13 03:39:27;;;;;;;;;;;;;;;20.68;81.58;99069.44;5054788;28;20051;-67
2021/07/13 03:41:57;;;;;;;13.30;10.32;;;;;;;20.69;81.70;99067.69;5054373;28;19959;-68
2021/07/13 03:44:28;;;;;;;16.60;11.20;;;;;;;20.75;81.77;99067.41;5036583;28;20051;-68
2021/07/13 03:46:58;;;;;;;15.32;10.80;;;;;;;20.79;81.46;99063.72;5036813;28;20124;-67
2021/07/13 03:49:27;;;;;;;;;;;;;;;20.83;81.33;99064.41;5054595;28;20037;-68
2021/07/13 03:51:56;;;;;;;;;;;;;;;20.84;81.29;99063.47;5054520;28;19974;-69
2021/07/13 03:54:25;;;;;;;17.73;11.82;;;;;;;20.88;81.29;99067.56;5054218;28;19971;-68
2021/07/13 03:56:54;;;;;;;15.70;11.10;;;;;;;20.88;81.43;99060.63;5054400;28;20124;-68
2021/07/13 03:59:23;;;;;;;17.08;11.73;;;;;;;20.89;81.20;99070.09;5053619;28;20037;-68
2021/07/13 04:01:53;;;;;;;16.50;11.60;;;;;;;20.91;81.51;99065.66;5054079;28;20124;-68
2021/07/13 04:04:24;;;;;;;18.67;11.32;;;;;;;20.93;81.37;99063.81;5054595;28;20227;-68
2021/07/13 04:06:53;;;;;;;21.30;11.73;;;;;;;21.00;81.30;99057.41;5054244;28;20039;-69
2021/07/13 04:09:22;;;;;;;15.82;11.57;;;;;;;21.03;81.00;99057.25;5054180;28;20033;-69
2021/07/13 04:11:51;;;;;;;14.82;11.27;;;;;;;21.07;81.09;99063.97;5054022;28;20111;-69
2021/07/13 04:14:20;;;;;;;18.25;10.50;;;;;;;21.15;81.24;99061.81;5054121;28;20148;-69
2021/07/13 04:16:50;;;;;;;19.23;11.48;;;;;;;21.20;80.95;99053.78;5053793;28;20094;-68
2021/07/13 04:19:20;;;;;;;16.40;10.75;;;;;;;21.29;80.78;99064.50;5053956;28;20051;-69
2021/07/13 04:21:50;;;;;;;15.43;11.35;;;;;;;21.36;80.78;99062.41;5053885;28;20041;-69
2021/07/13 04:24:20;;;;;;;15.48;11.68;;;;;;;21.42;80.51;99066.44;5053996;28;20079;-68
2021/07/13 04:26:49;;;;;;;14.68;10.88;;;;;;;21.44;80.38;99067.19;5053536;28;20045;-69
2021/07/13 04:29:18;;;;;;;15.30;10.85;;;;;;;21.46;80.13;99066.19;5035741;28;20056;-69
2021/07/13 04:31:47;;;;;;;14.15;9.98;;;;;;;21.47;79.82;99061.84;5053357;28;20498;-69
2021/07/13 04:34:17;;;;;;;16.10;11.27;;;;;;;21.48;79.74;99058.28;5053550;28;20048;-68
2021/07/13 04:36:48;;;;;;;17.13;10.75;;;;;;;21.52;79.90;99049.44;5053793;28;20041;-68
2021/07/13 04:39:17;;;;;;;15.57;11.57;;;;;;;21.52;80.01;99058.06;5053887;28;20049;-68
2021/07/13 04:41:46;;;;;;;17.35;11.20;;;;;;;21.62;79.89;99050.59;5053671;28;20127;-68
2021/07/13 04:44:16;;;;;;;13.75;10.70;;;;;;;21.65;79.88;99050.41;5053616;28;20055;-69
2021/07/13 04:46:44;;;;;;;20.30;10.88;;;;;;;21.72;79.76;99056.94;5053926;28;20487;-69
2021/07/13 04:49:14;;;;;;;17.83;10.88;;;;;;;21.83;79.67;99054.59;5054229;28;20378;-69
2021/07/13 04:51:48;;;;;;;14.07;11.00;;;;;;;22.02;79.02;99044.84;5053559;28;20047;-68
2021/07/13 04:54:18;;;;;;;15.57;10.50;;;;;;;22.16;78.45;99044.91;5053331;28;20106;-69
2021/07/13 04:56:47;;;;;;;16.55;11.10;;;;;;;22.31;77.92;99046.63;5053513;28;20037;-70
2021/07/13 04:59:16;;;;;;;14.85;11.32;;;;;;;22.44;77.27;99047.56;5053580;28;20077;-69
2021/07/13 05:01:45;;;;;;;15.52;10.68;;;;;;;22.54;76.76;99048.69;5053255;28;20124;-68
2021/07/13 05:04:15;;;;;;;16.05;10.90;;;;;;;22.67;76.49;99044.44;5053325;28;20091;-69
2021/07/13 05:06:45;;;;;;;14.02;10.68;;;;;;;22.84;76.08;99047.81;5053798;28;20041;-67
2021/07/13 05:09:16;;;;;;;15.15;10.13;;;;;;;22.96;75.54;99047.06;5053467;28;20049;-69
2021/07/13 05:11:45;;;;;;;14.80;10.43;;;;;;;23.04;74.92;99047.41;5055890;28;20124;-69
2021/07/13 05:14:14;;;;;;;;;;;;;;;23.15;74.80;99048.44;5057492;28;20115;-69
2021/07/13 05:16:43;;;;;;;14.97;10.63;;;;;;;23.30;74.68;99049.22;5057702;28;19927;-70
2021/07/13 05:19:14;;;;;;;16.20;9.90;;;;;;;23.41;74.16;99052.06;5057069;28;20099;-68
2021/07/13 05:21:49;;;;;;;13.50;10.10;;;;;;;23.55;73.59;99049.41;5057263;28;20131;-70
2021/07/13 05:24:20;;;;;;;13.20;9.80;;;;;;;23.69;73.26;99051.13;5057115;28;20052;-70
2021/07/13 05:26:50;;;;;;;13.55;9.43;;;;;;;23.77;72.56;99043.66;5056964;28;20037;-68
2021/07/13 05:29:19;;;;;;;12.48;9.60;;;;;;;23.87;72.32;99049.94;5057197;28;20033;-67
2021/07/13 05:31:48;;;;;;;15.00;10.10;;;;;;;23.90;71.94;99044.50;5038996;28;20051;-70
2021/07/13 05:34:19;;;;;;;14.20;9.65;;;;;;;23.90;72.22;99050.56;5056951;28;20124;-69
2021/07/13 05:36:48;;;;;;;12.15;9.25;;;;;;;24.04;71.80;99035.81;5057049;28;20061;-68
2021/07/13 05:39:17;;;;;;;12.18;9.95;;;;;;;24.19;71.51;99040.03;5056721;28;20498;-69
2021/07/13 05:41:47;;;;;;;14.93;10.20;;;;;;;24.25;71.11;99044.84;5056505;28;20067;-69
2021/07/13 05:44:17;;;;;;;15.70;9.57;;;;;;;24.36;70.94;99042.34;5056497;28;20049;-68
2021/07/13 05:46:46;;;;;;;12.57;9.10;;;;;;;24.36;70.80;99037.97;5056487;28;20150;-68
2021/07/13 05:49:15;;;;;;;14.18;10.10;;;;;;;24.40;70.35;99039.41;5056455;28;20522;-68
2021/07/13 05:51:45;;;;;;;11.18;9.50;;;;;;;24.41;70.18;99035.06;5056750;28;20464;-68
2021/07/13 05:54:14;;;;;;;15.45;10.27;;;;;;;24.38;70.36;99030.03;5056335;28;20128;-69
2021/07/13 05:56:43;;;;;;;15.75;9.80;;;;;;;24.37;70.31;99039.66;5056338;28;20080;-68
2021/07/13 05:59:14;;;;;;;13.65;10.07;;;;;;;24.34;70.10;99039.00;5056492;28;20033;-69
2021/07/13 06:01:43;;;;;;;14.52;9.40;;;;;;;24.30;70.46;99037.56;5056571;28;20033;-68
2021/07/13 06:04:12;;;;;;;11.30;9.70;;;;;;;24.29;70.81;99026.28;5056124;28;20041;-69
2021/07/13 06:06:41;;;;;;;;;;;;;;;24.34;70.90;99036.41;5056859;28;20068;-68
2021/07/13 06:09:10;;;;;;;14.32;10.00;;;;;;;24.44;71.39;99040.06;5056484;28;19920;-69
2021/07/13 06:11:39;;;;;;;12.85;10.30;;;;;;;24.55;70.34;99042.78;5056353;28;20499;-69
2021/07/13 06:14:08;;;;;;;12.25;9.68;;;;;;;24.62;69.93;99050.09;5056034;28;20120;-69
2021/07/13 06:16:40;;;;;;;11.57;8.73;;;;;;;24.68;69.84;99043.63;5056623;28;20411;-69
2021/07/13 06:19:09;;;;;;;12.70;10.18;;;;;;;24.72;70.43;99047.69;5055917;28;20048;-69
2021/07/13 06:21:38;;;;;;;14.02;10.10;;;;;;;24.80;70.61;99034.97;5056044;28;20129;-68
2021/07/13 06:24:07;;;;;;;;;;;;;;;24.92;68.11;99041.13;5055431;28;20049;-68
2021/07/13 06:26:36;;;;;;;11.53;8.83;;;;;;;25.02;67.65;99042.16;5055977;28;20042;-68
2021/07/13 06:29:05;;;;;;;13.57;9.38;;;;;;;25.17;67.28;99041.91;5055674;28;20279;-69
2021/07/13 06:31:34;;;;;;;12.63;8.60;;;;;;;25.25;66.85;99039.59;5055213;28;20059;-69
2021/07/13 06:34:04;;;;;;;9.27;7.60;;;;;;;25.29;66.10;99035.81;5055683;28;20045;-68
2021/07/13 06:36:35;;;;;;;9.88;8.30;;;;;;;25.36;66.10;99043.25;5055973;28;20494;-68
2021/07/13 06:39:04;;;;;;;10.70;8.32;;;;;;;25.47;65.41;99028.47;5055491;28;20048;-71
2021/07/13 06:41:33;;;;;;;10.57;8.20;;;;;;;25.54;65.03;99024.47;5038037;28;20029;-69
2021/07/13 06:44:02;;;;;;;9.55;7.88;;;;;;;25.58;65.06;99027.72;5055425;28;20041;-69
2021/07/13 06:46:32;;;;;;;;;;;;;;;25.57;65.32;99018.19;5055798;28;20059;-69
2021/07/13 06:49:02;;;;;;;12.82;8.68;;;;;;;25.67;65.49;99020.03;5055275;28;19928;-68
2021/07/13 06:51:33;;;;;;;9.57;7.60;;;;;;;25.89;65.12;99014.06;5055291;28;20055;-69
2021/07/13 06:54:02;;;;;;;10.35;8.02;;;;;;;26.02;64.78;99014.81;5055336;28;20059;-69
2021/07/13 06:56:31;;;;;;;11.95;8.70;;;;;;;26.12;64.11;99015.00;5055519;28;20404;-68
2021/07/13 06:59:00;;;;;;;11.52;8.15;;;;;;;26.16;62.99;99017.25;5055751;28;20542;-68
2021/07/13 07:01:29;;;;;;;11.20;7.93;;;;;;;26.33;62.96;99008.97;5054995;28;20072;-70
2021/07/13 07:03:58;;;;;;;9.52;7.70;;;;;;;26.60;62.41;99016.53;5055022;28;20135;-68
2021/07/13 07:06:27;;;;;;;10.65;7.72;;;;;;;26.74;61.32;99013.66;5054785;28;20116;-70
2021/07/13 07:08:58;;;;;;;11.35;7.80;;;;;;;26.83;61.46;99012.13;5060659;28;20033;-70
2021/07/13 07:11:27;;;;;;;9.90;7.82;;;;;;;26.96;60.78;99007.63;5075208;28;20040;-70
2021/07/13 07:13:56;;;;;;;10.70;7.03;;;;;;;27.10;60.13;99007.38;5075055;28;20044;-70
2021/07/13 07:16:25;;;;;;;10.25;8.13;;;;;;;27.28;60.10;98998.88;5075015;28;20098;-70
2021/07/13 07:18:54;;;;;;;12.13;7.30;;;;;;;27.39;59.39;99005.91;5074681;28;20075;-70
2021/07/13 07:21:23;;;;;;;11.30;7.45;;;;;;;27.37;58.99;99005.19;5074402;28;20135;-70
2021/07/13 07:23:52;;;;;;;10.00;7.28;;;;;;;27.54;58.04;99004.69;5074441;28;20041;-71
2021/07/13 07:26:23;;;;;;;9.60;7.40;;;;;;;27.60;57.68;99004.19;5074828;28;20037;-70
2021/07/13 07:28:51;;;;;;;11.20;7.53;;;;;;;27.69;57.92;98992.94;5074564;28;20047;-69
2021/07/13 07:31:21;;;;;;;9.25;7.50;;;;;;;27.71;57.55;98995.44;5074521;28;20044;-71
2021/07/13 07:33:50;;;;;;;8.57;7.25;;;;;;;27.76;57.83;98988.84;5056194;28;20462;-69
2021/07/13 07:36:22;;;;;;;9.05;6.97;;;;;;;27.88;57.70;98987.84;5074265;28;20119;-70
2021/07/13 07:38:51;;;;;;;9.52;7.07;;;;;;;27.95;56.31;98987.34;5074581;28;20048;-70
2021/07/13 07:41:22;;;;;;;9.85;7.55;;;;;;;28.04;56.27;98986.59;5074295;28;20064;-71
2021/07/13 07:43:51;;;;;;;8.65;7.15;;;;;;;28.08;55.87;98988.00;5074417;28;20036;-72
2021/07/13 07:46:20;;;;;;;9.15;7.30;;;;;;;28.11;55.67;98977.25;5074657;28;20403;-71
2021/07/13 07:48:50;;;;;;;10.27;7.13;;;;;;;28.09;55.91;98979.19;5074088;28;20127;-70
2021/07/13 07:51:18;;;;;;;10.45;7.20;;;;;;;28.04;55.89;98976.94;5074430;28;20086;-72
2021/07/13 07:53:47;;;;;;;8.23;6.95;;;;;;;28.21;56.13;98983.41;5073984;28;20044;-70
2021/07/13 07:56:16;;;;;;;9.85;7.35;;;;;;;28.39;56.21;98976.59;5074304;28;20040;-71
2021/07/13 07:58:47;;;;;;;;;;;;;;;28.49;55.47;98977.47;5074399;28;20040;-71
2021/07/13 08:01:17;;;;;;;10.25;6.90;;;;;;;28.55;55.27;98979.59;5073685;28;19928;-71
2021/07/13 08:03:46;;;;;;;12.55;7.10;;;;;;;28.46;55.28;98982.97;5074288;28;20107;-70
2021/07/13 08:06:15;;;;;;;9.93;7.70;;;;;;;28.41;55.37;98972.06;5073832;28;20036;-70
2021/07/13 08:08:44;;;;;;;9.05;7.15;;;;;;;28.47;56.03;98977.63;5074091;28;20040;-70
2021/07/13 08:11:13;;;;;;;9.40;7.28;;;;;;;28.60;55.05;98973.97;5073741;28;20127;-69
2021/07/13 08:13:41;;;;;;;11.07;7.35;;;;;;;28.86;53.72;98973.38;5073856;28;20426;-73
2021/07/13 08:16:12;;;;;;;9.90;7.45;;;;;;;28.97;54.26;98968.03;5073569;28;20045;-72
2021/07/13 08:18:42;;;;;;;9.10;7.05;;;;;;;28.89;53.53;98970.47;5073461;28;20494;-70
2021/07/13 08:21:28;;;;;;;8.63;6.82;;;;;;;29.01;52.90;98969.41;5073700;28;20098;-68
2021/07/13 08:23:58;;;;;;;8.45;7.43;;;;;;;28.83;52.92;98976.28;5073450;28;20060;-71
2021/07/13 08:26:27;;;;;;;11.30;7.38;;;;;;;28.83;53.50;98981.53;5073815;28;20055;-72
2021/07/13 08:28:56;;;;;;;;;;;;;;;28.52;53.18;98979.84;5073995;28;20123;-70
2021/07/13 08:31:28;;;;;;;9.30;6.85;;;;;;;28.79;53.52;98974.88;5073601;28;20003;-71
2021/07/13 08:33:57;;;;;;;8.40;6.60;;;;;;;28.90;53.52;98977.41;5073950;28;20044;-70
2021/07/13 08:36:26;;;;;;;8.10;6.70;;;;;;;29.02;52.54;98981.59;5073703;28;20068;-70
2021/07/13 08:38:55;;;;;;;9.23;7.03;;;;;;;29.10;52.52;98975.66;5072400;28;20124;-72
2021/07/13 08:41:25;;;;;;;7.63;6.63;;;;;;;29.10;52.30;98967.78;5071200;28;20051;-71
2021/07/13 08:43:55;;;;;;;8.38;6.60;;;;;;;29.11;52.22;98974.69;5071489;28;20051;-71
2021/07/13 08:46:27;;;;;;;7.97;6.70;;;;;;;29.38;52.05;98981.97;5063165;28;20068;-72
2021/07/13 08:49:00;;;;;;;10.88;7.18;;;;;;;29.64;51.29;98962.03;5071993;28;20055;-71
2021/07/13 08:51:29;;;;;;;9.18;6.45;;;;;;;29.50;50.53;98971.19;5072176;28;20068;-68
2021/07/13 08:54:01;;;;;;;10.02;6.70;;;;;;;29.55;50.35;98983.91;5070030;28;20037;-71
2021/07/13 08:56:31;;;;;;;10.35;7.07;;;;;;;29.63;50.74;98976.19;5053877;28;20047;-69
2021/07/13 08:59:00;;;;;;;8.25;6.78;;;;;;;29.82;51.18;98981.47;5065276;28;20049;-72
2021/07/13 09:01:29;;;;;;;;;;;;;;;30.01;50.08;98981.44;5071385;28;20037;-70
2021/07/13 09:04:04;;;;;;;8.32;6.68;;;;;;;29.90;49.86;98988.69;5070283;28;19966;-70
2021/07/13 09:06:52;;;;;;;9.38;6.75;;;;;;;29.85;49.11;98976.75;5072234;28;20053;-71
2021/07/13 09:09:27;;;;;;;11.38;6.85;;;;;;;30.01;49.84;98970.94;5068031;28;20120;-71
2021/07/13 09:12:08;;;;;;;11.02;6.68;;;;;;;30.06;50.08;98968.69;5069612;28;20491;-72
2021/07/13 09:14:51;;;;;;;9.23;6.93;;;;;;;29.94;49.96;98969.81;5067110;28;20048;-72
2021/07/13 09:17:34;;;;;;;8.57;6.57;;;;;;;29.99;50.00;98972.88;5063180;28;20478;-69
2021/07/13 09:20:09;;;;;;;7.55;6.75;;;;;;;30.25;48.85;98962.56;5067672;28;20087;-73
2021/07/13 09:22:41;;;;;;;7.50;6.15;;;;;;;30.34;48.61;98962.56;5054390;28;20452;-71
2021/07/13 09:25:35;;;;;;;7.43;6.32;;;;;;;30.49;48.82;98963.78;5070801;28;20502;-69
2021/07/13 09:28:14;;;;;;;9.68;7.10;;;;;;;30.63;47.94;98961.63;5057395;28;20072;-74
2021/07/13 09:30:46;;;;;;;8.80;6.18;;;;;;;30.43;46.44;98959.06;5072839;28;20060;-71
2021/07/13 09:33:21;;;;;;;11.05;6.38;;;;;;;30.55;47.29;98966.81;5071427;28;20049;-71
2021/07/13 09:36:06;;;;;;;8.38;6.80;;;;;;;30.45;49.27;98965.00;5053672;28;20059;-71
2021/07/13 09:38:37;;;;;;;8.68;6.40;;;;;;;30.62;48.67;98967.88;5069589;28;20049;-72
2021/07/13 09:41:15;;;;;;;7.63;6.22;;;;;;;30.71;45.80;98969.63;5066461;28;20120;-72
2021/07/13 09:43:48;;;;;;;7.30;5.50;;;;;;;30.52;45.85;98960.03;5067746;28;20072;-71
2021/07/13 09:46:29;;;;;;;7.40;6.20;;;;;;;30.71;46.33;98969.63;5040113;28;20036;-72
2021/07/13 09:49:10;;;;;;;7.85;5.90;;;;;;;30.77;46.27;98958.50;5072777;28;20075;-71
2021/07/13 09:51:45;;;;;;;7.18;5.72;;;;;;;30.71;45.58;98964.38;5070655;28;20037;-71
2021/07/13 09:54:30;;;;;;;7.53;6.05;;;;;;;30.66;46.89;98963.97;5068796;28;20037;-70
2021/07/13 09:57:00;;;;;;;7.88;6.22;;;;;;;30.83;45.37;98969.31;5070002;28;20037;-72
2021/07/13 09:59:29;;;;;;;8.63;6.53;;;;;;;30.88;45.63;98967.03;5056242;28;20071;-73
2021/07/13 10:01:58;;;;;;;;;;;;;;;30.88;45.62;98966.22;5076316;28;20111;-72
2021/07/13 10:04:26;;;;;;;;;;;;;;;30.98;46.04;98967.03;5077184;28;20332;-71
2021/07/13 10:07:02;;;;;;;6.95;6.20;;;;;;;31.21;45.91;98973.56;5076137;28;19974;-72
2021/07/13 10:09:34;;;;;;;7.40;5.82;;;;;;;31.13;46.17;98976.94;5076375;28;20059;-72
2021/07/13 10:12:09;;;;;;;8.07;6.32;;;;;;;31.04;46.01;98971.72;5076515;28;20044;-74
2021/07/13 10:14:39;;;;;;;8.48;6.25;;;;;;;31.04;46.56;98966.44;5075934;28;20509;-71
2021/07/13 10:17:09;;;;;;;7.60;6.55;;;;;;;31.01;46.62;98966.72;5076308;28;20086;-72
2021/07/13 10:19:45;;;;;;;9.40;6.63;;;;;;;30.89;46.10;98957.38;5075924;28;20044;-72
2021/07/13 10:22:16;;;;;;;9.40;6.53;;;;;;;30.92;46.85;98954.44;5076122;28;20044;-72
2021/07/13 10:24:49;;;;;;;7.88;6.60;;;;;;;30.81;46.94;98949.34;5058121;28;20071;-71
2021/07/13 10:27:26;;;;;;;7.47;6.20;;;;;;;30.92;46.61;98957.09;5076028;28;20036;-71
2021/07/13 10:29:56;;;;;;;8.48;6.90;;;;;;;31.01;46.33;98961.47;5075866;28;20564;-68
2021/07/13 10:32:37;;;;;;;8.68;6.63;;;;;;;31.00;46.53;98954.53;5075638;28;20048;-72
2021/07/13 10:35:23;;;;;;;8.63;7.00;;;;;;;31.32;47.26;98944.31;5075702;28;20524;-72
2021/07/13 10:37:55;;;;;;;7.50;6.70;;;;;;;31.35;46.07;98959.84;5075653;28;20052;-72
2021/07/13 10:40:38;;;;;;;9.52;7.47;;;;;;;31.23;46.74;98952.31;5075558;28;20055;-72
2021/07/13 10:43:16;;;;;;;8.52;7.43;;;;;;;31.11;46.87;98962.25;5075475;28;20087;-71
2021/07/13 10:45:46;;;;;;;9.07;7.07;;;;;;;30.96;47.55;98956.63;5075425;28;20044;-72
2021/07/13 10:48:17;;;;;;;10.63;7.60;;;;;;;30.97;47.41;98954.84;5075646;28;20460;-71
2021/07/13 10:50:57;;;;;;;10.52;7.63;;;;;;;30.87;48.39;98956.66;5075731;28;20440;-71
2021/07/13 10:53:30;;;;;;;9.35;7.35;;;;;;;31.21;47.64;98951.63;5075480;28;20040;-73
2021/07/13 10:56:18;;;;;;;12.70;7.35;;;;;;;31.42;46.98;98950.38;5076126;28;20390;-72
2021/07/13 10:58:52;;;;;;;9.50;7.65;;;;;;;31.54;47.74;98953.63;5057458;28;20042;-71
2021/07/13 11:01:33;;;;;;;9.10;7.63;;;;;;;31.60;47.15;98956.47;5075088;28;20060;-71
2021/07/13 11:04:06;;;;;;;9.43;7.00;;;;;;;31.47;46.71;98961.31;5075329;28;20055;-71
2021/07/13 11:06:46;;;;;;;9.15;6.55;;;;;;;31.37;47.13;98954.41;5075307;28;20398;-71
2021/07/13 11:09:23;;;;;;;9.00;7.57;;;;;;;31.63;47.69;98948.28;5074731;28;20056;-71
2021/07/13 11:11:53;;;;;;;9.35;7.20;;;;;;;31.81;46.81;98945.63;5074966;28;20135;-70
2021/07/13 11:14:22;;;;;;;10.63;7.22;;;;;;;31.73;46.31;98933.19;5075539;28;20040;-72
2021/07/13 11:16:52;;;;;;;8.98;7.38;;;;;;;31.72;46.80;98942.06;5075053;28;20048;-72
2021/07/13 11:19:23;;;;;;;9.30;7.63;;;;;;;31.63;46.69;98927.16;5075031;28;20044;-72
2021/07/13 11:21:53;;;;;;;10.57;7.30;;;;;;;31.64;47.08;98936.75;5074727;28;20486;-73
2021/07/13 11:24:25;;;;;;;7.82;6.68;;;;;;;31.74;45.64;98934.84;5074592;28;20064;-71
2021/07/13 11:26:57;;;;;;;7.88;6.40;;;;;;;31.64;45.25;98923.56;5074595;28;20095;-72
2021/07/13 11:29:29;;;;;;;8.40;6.47;;;;;;;31.67;44.90;98917.94;5074978;28;20133;-72
2021/07/13 11:32:00;;;;;;;10.55;6.63;;;;;;;31.88;44.76;98924.72;5074232;28;20449;-71
2021/07/13 11:34:33;;;;;;;8.07;6.90;;;;;;;31.99;44.46;98927.13;5074851;28;20045;-72
2021/07/13 11:37:02;;;;;;;8.75;6.53;;;;;;;31.90;44.82;98934.13;5074408;28;20045;-71
2021/07/13 11:39:35;;;;;;;8.52;6.68;;;;;;;32.03;43.87;98917.91;5074386;28;20044;-71
2021/07/13 11:42:08;;;;;;;9.25;6.32;;;;;;;32.06;43.48;98918.41;5074377;28;20067;-72
2021/07/13 11:44:38;;;;;;;10.32;6.47;;;;;;;32.07;43.88;98919.25;5074396;28;20040;-70
2021/07/13 11:47:10;;;;;;;8.65;6.43;;;;;;;32.13;43.50;98910.72;5074214;28;20056;-68
2021/07/13 11:49:40;;;;;;;8.68;6.53;;;;;;;32.06;43.16;98886.72;5074154;28;20461;-71